Time;durP1;ratioP1;P1;durP2;ratioP2;P2;SDS_P1;SDS_P2;PMS_P1;PMS_P2;Temp;Humidity;BMP_temperature;BMP_pressure;BME280_temperature;BME280_humidity;BME280_pressure;Samples;Min_cycle;Max_cycle;Signal;HPM_P1;HPM_P2
2024/01/28 00:01:37;;;;;;;;;;;;;;;18.32;62.81;101929.34;7391540;19;1534;-32
2024/01/28 00:04:03;;;;;;;;;;;;;;;18.37;62.70;101930.75;7390520;19;1369;-32
2024/01/28 00:06:34;;;;;;;;;;;;;;;18.41;62.45;101934.94;7391428;19;1554;-32
2024/01/28 00:09:02;;;;;;;;;;;;;;;18.41;62.69;101951.00;7391688;19;1149;-32
2024/01/28 00:11:31;;;;;;;;;;;;;;;18.39;62.52;101952.09;7391439;19;1235;-31
2024/01/28 00:13:59;;;;;;;;;;;;;;;18.32;62.48;101945.41;7391298;19;1238;-31
2024/01/28 00:16:28;;;;;;;;;;;;;;;18.35;62.44;101954.09;7390096;19;1859;-31
2024/01/28 00:18:58;;;;;;;;;;;;;;;18.35;62.38;101962.13;7390535;19;1163;-31
2024/01/28 00:21:26;;;;;;;;;;;;;;;18.35;62.63;101966.63;7377006;19;1274;-32
2024/01/28 00:23:59;;;;;;;;;;;;;;;18.35;62.50;101966.63;7391730;19;1921;-31
2024/01/28 00:26:28;;;;;;;;;;;;;;;18.32;62.51;101969.50;7390236;19;1568;-31
2024/01/28 00:28:56;;;;;;;;;;;;;;;18.29;62.28;101966.06;7390384;19;1167;-32
2024/01/28 00:31:24;;;;;;;;;;;;;;;18.35;62.26;101985.38;7391307;19;1538;-31
2024/01/28 00:33:53;;;;;;;;;;;;;;;18.35;62.12;101988.06;7389799;19;1186;-32
2024/01/28 00:36:21;;;;;;;;;;;;;;;18.29;62.06;101975.94;7390849;19;1875;-32
2024/01/28 00:38:49;;;;;;;;;;;;;;;18.32;62.24;101999.81;7390532;19;1564;-31
2024/01/28 00:41:26;;;;;;;;;;;;;;;18.32;62.12;101980.22;7390780;19;1549;-31
2024/01/28 00:43:55;;;;;;;;;;;;;;;18.36;62.00;102000.47;7387877;19;1227;-31
2024/01/28 00:46:24;;;;;;;;;;;;;;;18.33;62.04;101992.66;7390037;19;1802;-32
2024/01/28 00:48:52;;;;;;;;;;;;;;;18.36;61.94;101973.69;7389805;19;1498;-31
2024/01/28 00:51:20;;;;;;;;;;;;;;;18.39;61.93;101997.59;7391155;19;1200;-32
2024/01/28 00:53:49;;;;;;;;;;;;;;;18.38;61.85;101985.16;7385916;19;1250;-31
2024/01/28 00:56:17;;;;;;;;;;;;;;;18.36;61.78;101979.91;7388987;19;1858;-31
2024/01/28 00:58:48;;;;;;;;;;;;;;;18.34;61.81;101994.38;7389301;19;1410;-31
2024/01/28 01:01:18;;;;;;;;;;;;;;;18.37;61.83;101988.81;7389459;19;1204;-31
2024/01/28 01:03:47;;;;;;;;;;;;;;;18.37;61.60;101987.00;7389343;19;1477;-32
2024/01/28 01:06:15;;;;;;;;;;;;;;;18.38;61.65;101998.56;7389358;19;1625;-31
2024/01/28 01:08:43;;;;;;;;;;;;;;;18.36;61.65;102003.16;7389077;19;1481;-32
2024/01/28 01:11:12;;;;;;;;;;;;;;;18.36;61.64;101998.66;7388952;19;1399;-31
2024/01/28 01:13:41;;;;;;;;;;;;;;;18.33;61.64;101987.31;7389759;19;1356;-31
2024/01/28 01:16:12;;;;;;;;;;;;;;;18.32;61.60;102001.63;7389771;19;1318;-31
2024/01/28 01:18:40;;;;;;;;;;;;;;;18.37;61.41;101994.19;7389419;19;1443;-32
2024/01/28 01:21:08;;;;;;;;;;;;;;;18.35;61.51;101988.06;7374252;19;1529;-32
2024/01/28 01:23:37;;;;;;;;;;;;;;;18.38;61.54;101990.53;7387040;19;1263;-31
2024/01/28 01:26:05;;;;;;;;;;;;;;;18.32;61.75;101993.59;7388174;19;1298;-31
2024/01/28 01:28:34;;;;;;;;;;;;;;;18.39;61.44;102008.31;7388601;19;1609;-32
2024/01/28 01:31:04;;;;;;;;;;;;;;;18.36;61.58;102000.47;7388068;19;1616;-31
2024/01/28 01:33:35;;;;;;;;;;;;;;;18.31;61.68;102002.63;7388533;19;1279;-32
2024/01/28 01:36:03;;;;;;;;;;;;;;;18.36;61.67;102005.84;7388066;19;1525;-31
2024/01/28 01:38:32;;;;;;;;;;;;;;;18.33;61.58;102003.38;7387232;19;1848;-32
2024/01/28 01:41:01;;;;;;;;;;;;;;;18.33;61.62;102014.09;7388655;19;1082;-32
2024/01/28 01:43:30;;;;;;;;;;;;;;;18.33;61.65;102011.41;7388567;19;1282;-31
2024/01/28 01:45:58;;;;;;;;;;;;;;;18.31;61.39;102014.19;7388238;19;1545;-32
2024/01/28 01:48:27;;;;;;;;;;;;;;;18.34;61.41;102013.09;7388421;19;1967;-32
2024/01/28 01:50:58;;;;;;;;;;;;;;;18.35;61.50;102017.53;7388600;19;1313;-31
2024/01/28 01:53:26;;;;;;;;;;;;;;;18.33;61.36;102028.31;7387962;19;1330;-32
2024/01/28 01:55:55;;;;;;;;;;;;;;;18.33;61.43;102012.25;7387957;19;1518;-32
2024/01/28 01:58:24;;;;;;;;;;;;;;;18.33;61.65;102022.13;7386053;19;1847;-32
2024/01/28 02:00:52;;;;;;;;;;;;;;;18.39;61.17;102032.44;7387593;19;1259;-31
2024/01/28 02:03:20;;;;;;;;;;;;;;;18.28;61.48;102030.44;7387813;19;1169;-32
2024/01/28 02:05:49;;;;;;;;;;;;;;;18.33;61.34;102016.75;7388284;19;1505;-32
2024/01/28 02:08:20;;;;;;;;;;;;;;;18.34;61.33;102029.19;7387270;19;1326;-33
2024/01/28 02:10:48;;;;;;;;;;;;;;;18.31;61.63;102032.06;7386948;19;1673;-31
2024/01/28 02:13:16;;;;;;;;;;;;;;;18.42;61.20;102035.78;7387827;19;1055;-31
2024/01/28 02:15:45;;;;;;;;;;;;;;;18.34;61.43;102037.22;7387655;19;1525;-31
2024/01/28 02:18:15;;;;;;;;;;;;;;;18.05;61.54;102008.69;7385529;19;1860;-32
2024/01/28 02:20:43;;;;;;;;;;;;;;;18.32;61.47;102047.16;7372994;19;1565;-33
2024/01/28 02:23:13;;;;;;;;;;;;;;;18.34;61.28;102034.53;7387292;19;1164;-31
2024/01/28 02:25:44;;;;;;;;;;;;;;;18.29;61.55;102043.72;7387035;19;1182;-32
2024/01/28 02:28:12;;;;;;;;;;;;;;;18.32;61.50;102053.38;7386763;19;1232;-31
2024/01/28 02:30:41;;;;;;;;;;;;;;;18.28;61.49;102055.41;7386599;19;1612;-31
2024/01/28 02:33:09;;;;;;;;;;;;;;;18.32;61.45;102049.84;7386394;19;1181;-31
2024/01/28 02:35:38;;;;;;;;;;;;;;;18.35;61.36;102057.69;7391923;19;1120;-31
2024/01/28 02:38:06;;;;;;;;;;;;;;;18.33;61.16;102065.81;7392179;19;1875;-31
2024/01/28 02:40:34;;;;;;;;;;;;;;;18.31;61.28;102057.03;7393181;19;1234;-32
2024/01/28 02:43:07;;;;;;;;;;;;;;;18.26;61.38;102056.44;7393101;19;1215;-31
2024/01/28 02:45:35;;;;;;;;;;;;;;;17.55;61.06;101915.56;7391133;19;1306;-32
2024/01/28 02:48:04;;;;;;;;;;;;;;;18.38;61.03;102033.38;7394473;19;1039;-31
2024/01/28 02:50:32;;;;;;;;;;;;;;;18.32;61.00;102047.16;7392600;19;1128;-31
2024/01/28 02:53:00;;;;;;;;;;;;;;;18.32;61.06;102052.53;7392463;19;1510;-31
2024/01/28 02:55:29;;;;;;;;;;;;;;;18.38;60.94;102057.47;7392767;19;1135;-31
2024/01/28 02:57:57;;;;;;;;;;;;;;;18.33;61.12;102059.59;7392463;19;1858;-32
2024/01/28 03:00:29;;;;;;;;;;;;;;;18.30;61.16;102060.66;7394084;19;1514;-32
2024/01/28 03:02:57;;;;;;;;;;;;;;;18.32;61.10;102057.88;7393232;19;1208;-31
2024/01/28 03:05:26;;;;;;;;;;;;;;;18.32;60.92;102072.13;7394672;19;1151;-36
2024/01/28 03:07:54;;;;;;;;;;;;;;;18.29;61.14;102065.16;7394741;19;1062;-31
2024/01/28 03:10:22;;;;;;;;;;;;;;;18.29;61.02;102065.16;7393031;19;1491;-32
2024/01/28 03:12:51;;;;;;;;;;;;;;;18.14;60.95;102050.06;7393710;19;1557;-32
2024/01/28 03:15:19;;;;;;;;;;;;;;;18.29;60.94;102118.72;7393151;19;1290;-31
2024/01/28 03:17:50;;;;;;;;;;;;;;;18.25;61.00;102071.66;7392099;19;1858;-31
2024/01/28 03:20:19;;;;;;;;;;;;;;;18.28;60.90;102083.97;7393317;19;1558;-31
2024/01/28 03:22:47;;;;;;;;;;;;;;;18.28;61.12;102079.50;7374877;19;1521;-31
2024/01/28 03:25:16;;;;;;;;;;;;;;;18.27;60.85;102069.75;7392663;19;1124;-31
2024/01/28 03:27:44;;;;;;;;;;;;;;;18.29;61.05;102073.19;7393625;19;1603;-31
2024/01/28 03:30:14;;;;;;;;;;;;;;;18.30;60.96;102076.72;7392411;19;1102;-31
2024/01/28 03:32:43;;;;;;;;;;;;;;;18.29;60.68;102086.56;7392410;19;1197;-31
2024/01/28 03:35:13;;;;;;;;;;;;;;;18.24;60.68;102083.34;7392874;19;1490;-32
2024/01/28 03:37:42;;;;;;;;;;;;;;;18.24;61.08;102082.47;7392130;19;1848;-31
2024/01/28 03:40:11;;;;;;;;;;;;;;;18.30;60.70;102084.75;7393352;19;1273;-32
2024/01/28 03:42:40;;;;;;;;;;;;;;;18.33;60.78;102107.81;7392067;19;1405;-31
2024/01/28 03:45:09;;;;;;;;;;;;;;;18.27;60.84;102098.34;7390749;19;1494;-31
2024/01/28 03:47:37;;;;;;;;;;;;;;;18.27;60.69;102099.19;7391707;19;1565;-31
2024/01/28 03:50:06;;;;;;;;;;;;;;;18.28;60.74;102087.53;7392073;19;1440;-31
2024/01/28 03:52:37;;;;;;;;;;;;;;;18.26;60.79;102097.50;7390374;19;1580;-31
2024/01/28 03:55:06;;;;;;;;;;;;;;;18.23;60.99;102100.34;7391422;19;1594;-31
2024/01/28 03:57:34;;;;;;;;;;;;;;;18.28;60.71;102092.91;7390747;19;1837;-32
2024/01/28 04:00:05;;;;;;;;;;;;;;;18.31;60.53;102096.34;7392622;19;1139;-32
2024/01/28 04:02:34;;;;;;;;;;;;;;;18.49;60.34;102121.94;7392213;19;1931;-32
2024/01/28 04:05:02;;;;;;;;;;;;;;;18.18;60.58;102107.81;7391916;19;1396;-31
2024/01/28 04:07:32;;;;;;;;;;;;;;;17.75;61.56;102128.34;7391037;19;1395;-31
2024/01/28 04:10:03;;;;;;;;;;;;;;;17.53;62.58;102126.09;7391535;19;1077;-31
2024/01/28 04:12:31;;;;;;;;;;;;;;;18.01;61.34;102118.75;7390926;19;1192;-31
2024/01/28 04:14:59;;;;;;;;;;;;;;;18.39;60.49;102129.69;7391308;19;1235;-31
2024/01/28 04:17:28;;;;;;;;;;;;;;;18.42;60.61;102136.66;7390323;19;1857;-31
2024/01/28 04:19:56;;;;;;;;;;;;;;;18.42;60.49;102145.59;7390820;19;1211;-31
2024/01/28 04:22:24;;;;;;;;;;;;;;;18.50;60.39;102153.09;7376017;19;1569;-31
2024/01/28 04:24:52;;;;;;;;;;;;;;;18.54;60.09;102133.19;7391722;19;1634;-32
2024/01/28 04:27:21;;;;;;;;;;;;;;;18.43;60.40;102135.72;7389772;19;1540;-31
2024/01/28 04:29:49;;;;;;;;;;;;;;;18.55;59.92;102145.63;7391297;19;1479;-32
2024/01/28 04:32:17;;;;;;;;;;;;;;;18.63;59.61;102153.19;7391617;19;1146;-32
2024/01/28 04:34:46;;;;;;;;;;;;;;;18.51;59.92;102144.13;7390353;19;1588;-32
2024/01/28 04:37:14;;;;;;;;;;;;;;;18.47;60.12;102137.25;7391031;19;1604;-32
2024/01/28 04:39:42;;;;;;;;;;;;;;;18.53;60.18;102152.91;7388646;19;1850;-37
2024/01/28 04:42:11;;;;;;;;;;;;;;;18.56;60.05;102158.09;7389538;19;1140;-31
2024/01/28 04:44:42;;;;;;;;;;;;;;;18.56;60.02;102168.81;7390686;19;1653;-31
2024/01/28 04:47:10;;;;;;;;;;;;;;;18.58;59.93;102171.38;7389537;19;1145;-31
2024/01/28 04:49:39;;;;;;;;;;;;;;;18.61;59.76;102166.69;7390096;19;1168;-31
2024/01/28 04:52:08;;;;;;;;;;;;;;;18.56;60.04;102176.84;7388916;19;1737;-31
2024/01/28 04:54:36;;;;;;;;;;;;;;;18.59;59.85;102178.47;7390072;19;1086;-31
2024/01/28 04:57:04;;;;;;;;;;;;;;;18.56;59.81;102173.28;7387337;19;1279;-31
2024/01/28 04:59:33;;;;;;;;;;;;;;;18.56;60.02;102171.50;7387820;19;1944;-32
2024/01/28 05:02:05;;;;;;;;;;;;;;;18.57;59.84;102229.44;7389645;19;1652;-34
2024/01/28 05:04:34;;;;;;;;;;;;;;;18.58;59.96;102188.31;7389224;19;1156;-31
2024/01/28 05:07:02;;;;;;;;;;;;;;;18.55;59.99;102183.16;7389585;19;1199;-31
2024/01/28 05:09:31;;;;;;;;;;;;;;;18.56;59.98;102179.53;7388524;19;1649;-32
2024/01/28 05:11:59;;;;;;;;;;;;;;;18.59;59.68;102192.72;7388938;19;1215;-32
2024/01/28 05:14:27;;;;;;;;;;;;;;;18.60;59.77;102194.44;7388350;19;1616;-32
2024/01/28 05:16:58;;;;;;;;;;;;;;;18.64;59.68;102187.03;7389500;19;1569;-31
2024/01/28 05:19:29;;;;;;;;;;;;;;;18.60;59.68;102194.44;7387417;19;1844;-31
2024/01/28 05:21:58;;;;;;;;;;;;;;;18.66;59.77;102204.75;7373606;19;1634;-31
2024/01/28 05:24:26;;;;;;;;;;;;;;;18.64;59.43;102204.00;7389165;19;1509;-32
2024/01/28 05:26:54;;;;;;;;;;;;;;;18.68;59.27;102189.44;7389460;19;1023;-32
2024/01/28 05:29:22;;;;;;;;;;;;;;;18.61;59.52;102193.47;7390057;19;995;-32
2024/01/28 05:31:51;;;;;;;;;;;;;;;18.59;59.39;102210.59;7388588;19;1575;-31
2024/01/28 05:34:20;;;;;;;;;;;;;;;18.66;59.10;102215.47;7389193;19;1224;-31
2024/01/28 05:36:52;;;;;;;;;;;;;;;18.52;59.46;102236.91;7389570;19;1517;-31
2024/01/28 05:39:21;;;;;;;;;;;;;;;18.49;59.58;102221.03;7386401;19;1865;-32
2024/01/28 05:41:49;;;;;;;;;;;;;;;18.54;59.39;102224.28;7387945;19;1378;-31
2024/01/28 05:44:17;;;;;;;;;;;;;;;18.54;59.28;102221.59;7388196;19;1278;-31
2024/01/28 05:46:46;;;;;;;;;;;;;;;18.58;59.24;102215.13;7388519;19;1266;-32
2024/01/28 05:49:14;;;;;;;;;;;;;;;18.59;59.23;102214.13;7388566;19;1605;-32
2024/01/28 05:51:42;;;;;;;;;;;;;;;18.59;59.40;102216.81;7388627;19;1159;-31
2024/01/28 05:54:13;;;;;;;;;;;;;;;18.58;59.22;102228.50;7387157;19;1471;-31
2024/01/28 05:56:42;;;;;;;;;;;;;;;18.62;58.97;102243.44;7388308;19;1471;-31
2024/01/28 05:59:10;;;;;;;;;;;;;;;18.58;58.99;102241.91;7386414;19;1854;-31
2024/01/28 06:01:39;;;;;;;;;;;;;;;18.59;59.06;102238.25;7388250;19;1584;-31
2024/01/28 06:04:09;;;;;;;;;;;;;;;18.63;58.94;102245.13;7387862;19;1488;-31
2024/01/28 06:06:37;;;;;;;;;;;;;;;18.62;59.08;102253.25;7385973;19;1685;-32
2024/01/28 06:09:08;;;;;;;;;;;;;;;18.64;58.94;102252.22;7390265;19;1597;-32
2024/01/28 06:11:40;;;;;;;;;;;;;;;18.71;58.93;102262.56;7394717;19;1443;-32
2024/01/28 06:14:08;;;;;;;;;;;;;;;18.67;58.74;102265.41;7395333;19;1219;-32
2024/01/28 06:16:36;;;;;;;;;;;;;;;18.65;58.77;102272.69;7394837;19;1668;-32
2024/01/28 06:19:05;;;;;;;;;;;;;;;18.62;58.67;102270.22;7393868;19;2258;-32
2024/01/28 06:21:33;;;;;;;;;;;;;;;18.57;58.90;102293.75;7396119;19;1210;-32
2024/01/28 06:24:02;;;;;;;;;;;;;;;18.60;58.60;102277.50;7380890;19;1226;-32
2024/01/28 06:26:35;;;;;;;;;;;;;;;18.61;58.72;102276.53;7395015;19;1482;-32
2024/01/28 06:29:06;;;;;;;;;;;;;;;18.51;58.88;102275.38;7395492;19;1172;-31
2024/01/28 06:31:35;;;;;;;;;;;;;;;18.52;59.09;102281.59;7395523;19;1147;-32
2024/01/28 06:34:04;;;;;;;;;;;;;;;18.55;58.87;102273.38;7395928;19;1506;-32
2024/01/28 06:36:32;;;;;;;;;;;;;;;18.59;58.71;102281.13;7395354;19;1203;-32
2024/01/28 06:39:01;;;;;;;;;;;;;;;18.62;58.81;102275.59;7393909;19;1871;-32
2024/01/28 06:41:29;;;;;;;;;;;;;;;18.62;58.71;102280.94;7394579;19;1565;-32
2024/01/28 06:43:57;;;;;;;;;;;;;;;18.62;58.81;102264.88;7394265;19;1552;-32
2024/01/28 06:46:28;;;;;;;;;;;;;;;18.64;58.78;102276.34;7394293;19;1600;-32
2024/01/28 06:48:57;;;;;;;;;;;;;;;18.65;58.70;102270.00;7395495;19;995;-32
2024/01/28 06:51:25;;;;;;;;;;;;;;;18.61;58.87;102254.22;7395051;19;1717;-32
2024/01/28 06:53:53;;;;;;;;;;;;;;;18.63;58.62;102281.78;7392230;19;1270;-32
2024/01/28 06:56:22;;;;;;;;;;;;;;;18.65;58.79;102282.56;7392431;19;2499;-32
2024/01/28 06:58:50;;;;;;;;;;;;;;;18.72;58.41;102281.22;7392161;19;1870;-32
2024/01/28 07:01:19;;;;;;;;;;;;;;;18.75;58.55;102282.84;7394051;19;1537;-32
2024/01/28 07:03:50;;;;;;;;;;;;;;;18.77;58.69;102288.97;7393399;19;1249;-32
2024/01/28 07:06:19;;;;;;;;;;;;;;;18.79;58.55;102287.03;7394444;19;1192;-34
2024/01/28 07:08:47;;;;;;;;;;;;;;;18.71;58.76;102294.72;7393316;19;1577;-32
2024/01/28 07:11:24;;;;;;;;;;;;;;;18.22;59.83;102298.59;7317345;19;9999826;-32
2024/01/28 07:13:53;;;;;;;;;;;;;;;17.83;60.18;102291.97;7381787;19;1505;-32
2024/01/28 07:16:21;;;;;;;;;;;;;;;17.61;60.86;102281.66;7387040;19;1391;-32
2024/01/28 07:18:52;;;;;;;;;;;;;;;17.48;61.68;102301.09;7384044;19;1851;-32
2024/01/28 07:21:22;;;;;;;;;;;;;;;17.41;60.06;102183.88;7384223;19;1490;-32
2024/01/28 07:23:50;;;;;;;;;;;;;;;18.63;58.92;102295.19;7372837;19;1521;-32
2024/01/28 07:26:18;;;;;;;;;;;;;;;18.54;58.99;102293.94;7387406;19;1799;-37
2024/01/28 07:28:47;;;;;;;;;;;;;;;18.60;58.89;102309.66;7386668;19;1411;-32
2024/01/28 07:31:15;;;;;;;;;;;;;;;18.62;58.83;102291.66;7385969;19;1438;-32
2024/01/28 07:33:43;;;;;;;;;;;;;;;18.60;58.62;102309.66;7385460;19;1472;-32
2024/01/28 07:36:15;;;;;;;;;;;;;;;18.60;58.63;102309.66;7384266;19;1545;-32
2024/01/28 07:38:44;;;;;;;;;;;;;;;18.55;58.89;102301.03;7385458;19;1853;-32
2024/01/28 07:41:14;;;;;;;;;;;;;;;18.66;58.68;102314.63;7386192;19;1508;-32
2024/01/28 07:43:42;;;;;;;;;;;;;;;18.71;58.49;102319.69;7386099;19;1502;-32
2024/01/28 07:46:11;;;;;;;;;;;;;;;18.58;58.87;102338.34;7383773;19;1445;-32
2024/01/28 07:48:39;;;;;;;;;;;;;;;18.61;58.55;102324.75;7381755;19;1416;-32
2024/01/28 07:51:07;;;;;;;;;;;;;;;18.62;58.82;102318.44;7385043;19;1900;-32
2024/01/28 07:53:38;;;;;;;;;;;;;;;18.62;58.75;102320.25;7385106;19;1479;-32
2024/01/28 07:56:07;;;;;;;;;;;;;;;18.63;58.66;102330.88;7384275;19;1517;-32
2024/01/28 07:58:35;;;;;;;;;;;;;;;18.66;58.72;102317.31;7388067;19;1846;-32
2024/01/28 08:01:05;;;;;;;;;;;;;;;18.72;58.67;102334.81;7387834;19;1195;-32
2024/01/28 08:03:33;;;;;;;;;;;;;;;18.74;58.44;102332.03;7383829;19;1505;-32
2024/01/28 08:06:02;;;;;;;;;;;;;;;18.72;58.77;102348.22;7391873;19;1548;-32
2024/01/28 08:08:30;;;;;;;;;;;;;;;18.68;58.57;102338.63;7392234;19;1507;-32
2024/01/28 08:11:02;;;;;;;;;;;;;;;18.64;58.86;102345.13;7392707;19;1179;-32
2024/01/28 08:13:30;;;;;;;;;;;;;;;18.68;58.67;102327.91;7390988;19;1207;-32
2024/01/28 08:16:01;;;;;;;;;;;;;;;18.80;58.01;102342.38;7389850;19;1579;-35
2024/01/28 08:18:30;;;;;;;;;;;;;;;18.74;58.44;102327.53;7390262;19;1562;-32
2024/01/28 08:20:58;;;;;;;;;;;;;;;18.89;58.03;102341.81;7383663;19;1867;-32
2024/01/28 08:23:27;;;;;;;;;;;;;;;19.07;57.72;102351.38;7375209;19;1466;-32
2024/01/28 08:25:56;;;;;;;;;;;;;;;19.13;57.29;102358.19;7386511;19;1443;-32
2024/01/28 08:28:26;;;;;;;;;;;;;;;19.26;57.44;102361.81;7390951;19;1057;-32
2024/01/28 08:30:55;;;;;;;;;;;;;;;19.26;57.35;102366.31;7390081;19;1186;-32
2024/01/28 08:33:23;;;;;;;;;;;;;;;19.31;57.39;102366.00;7388262;19;1612;-32
2024/01/28 08:35:51;;;;;;;;;;;;;;;19.31;57.34;102369.53;7390389;19;1385;-32
2024/01/28 08:38:20;;;;;;;;;;;;;;;19.30;57.54;102366.94;7386477;19;2116;-32
2024/01/28 08:40:48;;;;;;;;;;;;;;;19.31;57.60;102374.91;7363466;19;1875;-32
2024/01/28 08:43:17;;;;;;;;;;;;;;;19.24;57.70;102369.09;7370163;19;1395;-32
2024/01/28 08:45:48;;;;;;;;;;;;;;;19.25;57.46;102370.78;7386765;19;1170;-32
2024/01/28 08:48:16;;;;;;;;;;;;;;;19.09;57.91;102380.78;7384890;19;1482;-32
2024/01/28 08:50:45;;;;;;;;;;;;;;;19.03;57.87;102375.81;7387538;19;1443;-33
2024/01/28 08:53:14;;;;;;;;;;;;;;;18.97;57.81;102366.31;7383888;19;1354;-32
2024/01/28 08:55:42;;;;;;;;;;;;;;;18.94;57.40;102374.56;7387583;19;1224;-32
2024/01/28 08:58:10;;;;;;;;;;;;;;;18.91;56.40;102369.41;7388207;19;1187;-32
2024/01/28 09:00:39;;;;;;;;;;;;;;;18.90;56.76;102386.44;7386456;19;1877;-32
2024/01/28 09:03:10;;;;;;;;;;;;;;;18.78;56.18;102377.31;7386666;19;1489;-32
2024/01/28 09:05:38;;;;;;;;;;;;;;;18.76;56.89;102386.38;7386037;19;1451;-32
2024/01/28 09:08:07;;;;;;;;;;;;;;;18.78;56.72;102373.75;7387340;19;1310;-32
2024/01/28 09:10:36;;;;;;;;;;;;;;;18.77;56.69;102391.66;7379255;19;1491;-33
2024/01/28 09:13:04;;;;;;;;;;;;;;;18.84;56.46;102379.66;7385152;19;1552;-32
2024/01/28 09:15:32;;;;;;;;;;;;;;;18.83;56.51;102377.06;7386062;19;1366;-32
2024/01/28 09:18:02;;;;;;;;;;;;;;;18.88;56.23;102396.41;7385500;19;2724;-32
2024/01/28 09:20:32;;;;;;;;;;;;;;;18.87;56.26;102383.94;7385612;19;1848;-32
2024/01/28 09:23:04;;;;;;;;;;;;;;;18.94;56.09;102381.72;7368295;19;1522;-32
2024/01/28 09:25:33;;;;;;;;;;;;;;;18.89;55.95;102392.75;7382991;19;1144;-32
2024/01/28 09:28:03;;;;;;;;;;;;;;;18.90;56.13;102364.13;7383090;19;1176;-32
2024/01/28 09:30:31;;;;;;;;;;;;;;;18.79;56.46;102373.69;7385867;19;1481;-32
2024/01/28 09:32:59;;;;;;;;;;;;;;;18.73;56.55;102389.28;7385998;19;1145;-32
2024/01/28 09:35:28;;;;;;;;;;;;;;;18.80;56.37;102380.78;7385899;19;1497;-32
2024/01/28 09:37:58;;;;;;;;;;;;;;;18.86;56.52;102390.25;7384855;19;1701;-32
2024/01/28 09:40:27;;;;;;;;;;;;;;;18.86;56.68;102379.53;7385469;19;1871;-32
2024/01/28 09:43:01;;;;;;;;;;;;;;;18.95;56.60;102372.75;7385823;19;1001;-32
2024/01/28 09:45:29;;;;;;;;;;;;;;;18.94;56.33;102366.53;7384859;19;1175;-32
2024/01/28 09:47:58;;;;;;;;;;;;;;;18.89;56.47;102376.66;7385051;19;1514;-33
2024/01/28 09:50:26;;;;;;;;;;;;;;;18.89;56.70;102379.34;7386323;19;1461;-33
2024/01/28 09:52:55;;;;;;;;;;;;;;;18.92;56.54;102387.22;7381827;19;1380;-33
2024/01/28 09:55:29;;;;;;;;;;;;;;;18.81;56.76;102387.88;7382807;19;1286;-32
2024/01/28 09:57:57;;;;;;;;;;;;;;;18.95;56.63;102383.47;7385031;19;1140;-32
2024/01/28 10:00:26;;;;;;;;;;;;;;;18.95;56.10;102396.88;7384706;19;1843;-32
2024/01/28 10:02:54;;;;;;;;;;;;;;;18.91;56.43;102395.34;7385155;19;1152;-32
2024/01/28 10:05:23;;;;;;;;;;;;;;;18.87;56.26;102397.34;7384681;19;1244;-32
2024/01/28 10:07:51;;;;;;;;;;;;;;;18.84;56.78;102392.16;7381746;19;1653;-32
2024/01/28 10:10:20;;;;;;;;;;;;;;;18.82;56.70;102381.56;7385636;19;1432;-32
2024/01/28 10:12:52;;;;;;;;;;;;;;;18.80;56.37;102374.56;7381314;19;2147;-32
2024/01/28 10:15:21;;;;;;;;;;;;;;;18.84;56.56;102386.81;7384249;19;1213;-32
2024/01/28 10:17:50;;;;;;;;;;;;;;;18.89;56.49;102384.72;7384202;19;1219;-32
2024/01/28 10:20:19;;;;;;;;;;;;;;;19.04;56.20;102383.75;7383762;19;1974;-32
2024/01/28 10:22:48;;;;;;;;;;;;;;;19.07;55.96;102372.81;7383992;19;1422;-33
2024/01/28 10:25:17;;;;;;;;;;;;;;;18.95;56.18;102381.66;7370213;19;1319;-33
2024/01/28 10:27:45;;;;;;;;;;;;;;;18.83;56.70;102382.41;7383789;19;1396;-33
2024/01/28 10:30:16;;;;;;;;;;;;;;;18.88;56.67;102396.41;7383698;19;1475;-32
2024/01/28 10:32:45;;;;;;;;;;;;;;;18.88;56.82;102399.09;7383762;19;1328;-32
2024/01/28 10:35:16;;;;;;;;;;;;;;;18.97;56.24;102382.41;7382628;19;1343;-32
2024/01/28 10:37:44;;;;;;;;;;;;;;;18.98;56.34;102368.06;7380517;19;1478;-32
2024/01/28 10:40:13;;;;;;;;;;;;;;;18.99;56.41;102379.63;7384387;19;1849;-32
2024/01/28 10:42:42;;;;;;;;;;;;;;;18.96;56.41;102385.19;7385661;19;1102;-32
2024/01/28 10:45:11;;;;;;;;;;;;;;;18.94;56.68;102393.34;7385345;19;1540;-32
2024/01/28 10:47:42;;;;;;;;;;;;;;;18.96;56.93;102395.91;7380332;19;1418;-32
2024/01/28 10:50:12;;;;;;;;;;;;;;;18.88;57.38;102380.31;7383476;19;1422;-32
2024/01/28 10:52:40;;;;;;;;;;;;;;;18.82;58.12;102399.44;7382831;19;1521;-32
2024/01/28 10:55:09;;;;;;;;;;;;;;;18.79;58.31;102383.53;7384687;19;1552;-32
2024/01/28 10:57:38;;;;;;;;;;;;;;;18.78;58.55;102381.78;7391058;19;1352;-32
2024/01/28 11:00:10;;;;;;;;;;;;;;;18.95;58.23;102392.38;7389089;19;1854;-32
2024/01/28 11:02:39;;;;;;;;;;;;;;;18.93;58.34;102362.13;7391330;19;1129;-32
2024/01/28 11:05:11;;;;;;;;;;;;;;;18.96;58.50;102377.13;7388112;19;1481;-32
2024/01/28 11:07:40;;;;;;;;;;;;;;;18.98;58.44;102389.50;7387996;19;1261;-32
2024/01/28 11:10:09;;;;;;;;;;;;;;;18.95;58.51;102370.91;7389283;19;1468;-32
2024/01/28 11:12:39;;;;;;;;;;;;;;;18.90;58.81;102370.38;7386938;19;1757;-32
2024/01/28 11:15:08;;;;;;;;;;;;;;;19.11;58.36;102376.19;7387245;19;1366;-32
2024/01/28 11:17:36;;;;;;;;;;;;;;;19.01;58.57;102389.31;7388980;19;1371;-32
2024/01/28 11:20:12;;;;;;;;;;;;;;;19.02;58.27;102369.59;7390292;19;1867;-32
2024/01/28 11:22:48;;;;;;;;;;;;;;;18.93;58.45;102372.84;7392052;19;1360;-32
2024/01/28 11:25:19;;;;;;;;;;;;;;;18.95;58.42;102378.97;7376588;19;1426;-32
2024/01/28 11:27:48;;;;;;;;;;;;;;;18.95;58.35;102372.75;7392241;19;1493;-32
2024/01/28 11:30:16;;;;;;;;;;;;;;;19.00;58.40;102374.19;7391290;19;1206;-33
2024/01/28 11:32:45;;;;;;;;;;;;;;;19.11;58.48;102367.28;7392598;19;1219;-39
2024/01/28 11:35:16;;;;;;;;;;;;;;;19.03;58.72;102387.38;7392725;19;1560;-32
2024/01/28 11:37:46;;;;;;;;;;;;;;;18.49;60.01;102371.06;7369524;19;1409;-32
2024/01/28 11:40:21;;;;;;;;;;;;;;;18.23;60.95;102370.81;7385632;19;1842;-32
2024/01/28 11:42:49;;;;;;;;;;;;;;;18.13;61.39;102372.31;7382792;19;1328;-32
2024/01/28 11:45:18;;;;;;;;;;;;;;;18.04;61.56;102368.34;7383596;19;1481;-32
2024/01/28 11:47:46;;;;;;;;;;;;;;;17.92;61.83;102377.09;7382665;19;1151;-32
2024/01/28 11:50:17;;;;;;;;;;;;;;;17.96;61.74;102378.63;7384066;19;1230;-32
2024/01/28 11:52:46;;;;;;;;;;;;;;;18.00;61.89;102379.31;7385664;19;1165;-32
2024/01/28 11:55:15;;;;;;;;;;;;;;;18.01;61.72;102381.06;7383339;19;1406;-32
2024/01/28 11:57:43;;;;;;;;;;;;;;;18.02;61.42;102364.03;7384168;19;1375;-33
2024/01/28 12:00:12;;;;;;;;;;;;;;;18.00;61.51;102364.13;7388443;19;1846;-43
2024/01/28 12:02:41;;;;;;;;;;;;;;;18.15;61.23;102377.56;7387942;19;1225;-32
2024/01/28 12:05:10;;;;;;;;;;;;;;;18.15;61.20;102380.25;7389238;19;1816;-32
2024/01/28 12:07:41;;;;;;;;;;;;;;;18.14;61.62;102365.97;7389219;19;1455;-32
2024/01/28 12:10:12;;;;;;;;;;;;;;;18.05;61.90;102372.75;7390124;19;1415;-32
2024/01/28 12:12:41;;;;;;;;;;;;;;;17.98;62.16;102367.84;7390642;19;1785;-32
2024/01/28 12:15:10;;;;;;;;;;;;;;;17.99;62.01;102342.81;7389446;19;1488;-32
2024/01/28 12:17:39;;;;;;;;;;;;;;;18.03;61.68;102368.44;7388892;19;1455;-32
2024/01/28 12:20:08;;;;;;;;;;;;;;;17.98;62.04;102359.81;7388762;19;1883;-32
2024/01/28 12:22:43;;;;;;;;;;;;;;;17.98;61.66;102373.19;7388190;19;1479;-32
2024/01/28 12:25:11;;;;;;;;;;;;;;;18.12;61.34;102372.38;7374493;19;1250;-32
2024/01/28 12:27:40;;;;;;;;;;;;;;;18.47;59.77;102381.00;7389758;19;1243;-34
2024/01/28 12:30:09;;;;;;;;;;;;;;;18.75;58.89;102365.91;7389898;19;1382;-32
2024/01/28 12:32:39;;;;;;;;;;;;;;;18.83;59.12;102363.66;7390067;19;1579;-32
2024/01/28 12:35:09;;;;;;;;;;;;;;;18.78;59.42;102387.16;7389893;19;1215;-32
2024/01/28 12:37:38;;;;;;;;;;;;;;;18.78;59.13;102369.28;7388302;19;1534;-32
2024/01/28 12:40:10;;;;;;;;;;;;;;;18.81;59.00;102376.28;7389325;19;1850;-32
2024/01/28 12:42:40;;;;;;;;;;;;;;;18.84;58.82;102394.84;7391409;19;1213;-32
2024/01/28 12:45:09;;;;;;;;;;;;;;;18.82;58.87;102400.31;7388095;19;1790;-32
2024/01/28 12:47:40;;;;;;;;;;;;;;;18.86;58.49;102400.97;7389883;19;1498;-32
2024/01/28 12:50:09;;;;;;;;;;;;;;;18.95;58.40;102392.38;7390286;19;1501;-32
2024/01/28 12:52:37;;;;;;;;;;;;;;;18.97;58.22;102386.91;7389685;19;1193;-32
2024/01/28 12:55:06;;;;;;;;;;;;;;;18.99;57.99;102388.53;7389806;19;1094;-32
2024/01/28 12:57:38;;;;;;;;;;;;;;;18.99;57.94;102383.19;7388536;19;1621;-32